createdAt,value
2018-02-24T00:00:07.142Z,78.05
2018-02-24T00:00:55.919Z,77.65
2018-02-24T00:01:45.016Z,78.11
2018-02-24T00:02:34.065Z,77.73
2018-02-24T00:03:23.102Z,77.91
2018-02-24T00:04:12.152Z,77.73
2018-02-24T00:05:01.268Z,77.96
2018-02-24T00:05:50.337Z,78.14
2018-02-24T00:06:39.372Z,77.78
2018-02-24T00:07:28.418Z,78.00
2018-02-24T00:08:17.476Z,77.98
2018-02-24T00:09:06.518Z,77.62
2018-02-24T00:09:55.651Z,77.74
2018-02-24T00:10:44.697Z,77.45
2018-02-24T00:11:33.760Z,77.47
2018-02-24T00:12:22.810Z,77.29
2018-02-24T00:13:11.852Z,77.18
2018-02-24T00:14:00.926Z,77.35
2018-02-24T00:14:49.979Z,77.07
2018-02-24T00:15:39.076Z,76.79
2018-02-24T00:16:28.127Z,76.98
2018-02-24T00:17:17.209Z,77.17
2018-02-24T00:18:06.243Z,77.06
2018-02-24T00:18:55.292Z,76.91
2018-02-24T00:19:44.354Z,76.98
2018-02-24T00:20:33.405Z,76.81
2018-02-24T00:21:22.480Z,76.37
2018-02-24T00:22:11.532Z,76.64
2018-02-24T00:23:00.584Z,76.55
2018-02-24T00:23:49.645Z,76.61
2018-02-24T00:24:38.717Z,76.58
2018-02-24T00:25:27.773Z,76.68
2018-02-24T00:26:16.807Z,76.50
2018-02-24T00:27:06.073Z,76.56
2018-02-24T00:27:55.130Z,76.53
2018-02-24T00:28:44.297Z,76.22
2018-02-24T00:29:33.354Z,76.34
2018-02-24T00:30:22.398Z,76.17
2018-02-24T00:31:13.881Z,76.54
2018-02-24T00:32:03.043Z,76.16
2018-02-24T00:32:52.080Z,75.15
2018-02-24T00:33:41.149Z,75.64
2018-02-24T00:34:30.195Z,76.37
2018-02-24T00:35:19.281Z,75.52
2018-02-24T00:36:08.336Z,75.76
2018-02-24T00:36:57.398Z,75.45
2018-02-24T00:37:46.493Z,75.46
2018-02-24T00:38:35.549Z,75.53
2018-02-24T00:39:24.617Z,75.84
2018-02-24T00:40:13.664Z,75.85
2018-02-24T00:41:02.727Z,76.33
2018-02-24T00:41:51.780Z,76.68
2018-02-24T00:42:40.848Z,76.30
2018-02-24T00:43:30.373Z,76.57
2018-02-24T00:44:19.427Z,76.31
2018-02-24T00:45:08.463Z,76.83
2018-02-24T00:45:57.565Z,76.75
2018-02-24T00:46:46.636Z,76.54
2018-02-24T00:47:35.683Z,76.63
2018-02-24T00:48:24.772Z,76.83
2018-02-24T00:49:13.838Z,76.39
2018-02-24T00:50:02.918Z,76.49
2018-02-24T00:50:51.968Z,76.20
2018-02-24T00:51:41.094Z,76.17
2018-02-24T00:52:30.153Z,76.08
2018-02-24T00:53:19.228Z,76.13
2018-02-24T00:54:08.305Z,76.06
2018-02-24T00:54:57.352Z,75.78
2018-02-24T00:55:46.579Z,76.02
2018-02-24T00:56:35.619Z,76.30
2018-02-24T00:57:24.733Z,75.41
2018-02-24T00:58:13.804Z,74.58
2018-02-24T00:59:02.864Z,75.08
2018-02-24T00:59:51.901Z,75.07
2018-02-24T01:00:40.947Z,75.05
2018-02-24T01:01:30.021Z,75.04
2018-02-24T01:02:19.076Z,75.29
2018-02-24T01:03:08.224Z,75.53
2018-02-24T01:03:57.274Z,75.60
2018-02-24T01:04:46.354Z,75.32
2018-02-24T01:05:35.432Z,75.14
2018-02-24T01:06:24.692Z,75.27
2018-02-24T01:07:13.742Z,75.79
2018-02-24T01:08:02.814Z,75.34
2018-02-24T01:08:52.083Z,75.08
2018-02-24T01:09:41.128Z,74.93
2018-02-24T01:10:30.185Z,75.66
2018-02-24T01:11:19.251Z,75.94
2018-02-24T01:12:08.305Z,75.63
2018-02-24T01:12:57.414Z,75.63
2018-02-24T01:13:46.528Z,75.25
2018-02-24T01:14:35.617Z,75.57
2018-02-24T01:15:24.659Z,75.32
2018-02-24T01:16:13.698Z,75.27
2018-02-24T01:17:02.799Z,75.70
2018-02-24T01:17:51.856Z,75.07
2018-02-24T01:18:40.923Z,75.64
2018-02-24T01:19:30.115Z,75.20
2018-02-24T01:20:19.180Z,75.04
2018-02-24T01:21:08.238Z,75.27
2018-02-24T01:21:57.274Z,75.66
2018-02-24T01:22:46.324Z,75.85
2018-02-24T01:23:35.446Z,75.74
2018-02-24T01:24:24.495Z,75.92
2018-02-24T01:25:14.583Z,75.65
2018-02-24T01:26:03.640Z,75.97
2018-02-24T01:26:52.680Z,76.69
2018-02-24T01:27:41.750Z,76.15
2018-02-24T01:28:30.795Z,75.90
2018-02-24T01:29:19.846Z,75.98
2018-02-24T01:30:08.882Z,75.76
2018-02-24T01:30:57.964Z,75.81
2018-02-24T01:31:47.010Z,76.19
2018-02-24T01:32:36.100Z,76.17
2018-02-24T01:33:25.156Z,76.13
2018-02-24T01:34:14.216Z,76.61
2018-02-24T01:35:03.298Z,76.86
2018-02-24T01:35:52.353Z,77.44
2018-02-24T01:36:41.498Z,77.69
2018-02-24T01:37:30.533Z,77.86
2018-02-24T01:38:19.575Z,78.59
2018-02-24T01:39:08.617Z,78.69
2018-02-24T01:39:57.669Z,78.54
2018-02-24T01:40:46.723Z,78.21
2018-02-24T01:41:35.772Z,77.97
2018-02-24T01:42:25.067Z,77.93
2018-02-24T01:43:14.123Z,77.99
2018-02-24T01:44:03.175Z,77.89
2018-02-24T01:44:52.241Z,77.92
2018-02-24T01:45:41.283Z,78.18
2018-02-24T01:46:30.327Z,78.59
2018-02-24T01:47:19.379Z,78.82
2018-02-24T01:48:08.456Z,79.28
2018-02-24T01:48:57.501Z,79.42
2018-02-24T01:49:46.558Z,79.25
2018-02-24T01:50:41.549Z,78.95
2018-02-24T01:51:30.595Z,78.85
2018-02-24T01:52:19.650Z,79.12
2018-02-24T01:53:11.493Z,78.72
2018-02-24T01:54:00.545Z,79.06
2018-02-24T01:54:49.584Z,78.91
2018-02-24T01:55:38.643Z,78.60
2018-02-24T01:56:27.879Z,78.60
2018-02-24T01:57:16.924Z,78.78
2018-02-24T01:58:05.963Z,78.95
2018-02-24T01:58:54.998Z,79.20
2018-02-24T01:59:44.075Z,78.80
2018-02-24T02:00:33.134Z,78.87
2018-02-24T02:01:22.178Z,79.36
2018-02-24T02:02:11.459Z,79.55
2018-02-24T02:03:00.504Z,79.30
2018-02-24T02:03:49.565Z,79.32
2018-02-24T02:04:38.619Z,79.32
2018-02-24T02:05:27.659Z,79.28
2018-02-24T02:06:16.763Z,79.05
2018-02-24T02:07:05.825Z,79.06
2018-02-24T02:07:54.890Z,79.08
2018-02-24T02:08:43.961Z,78.95
2018-02-24T02:09:33.003Z,78.73
2018-02-24T02:10:22.091Z,78.33
2018-02-24T02:11:11.178Z,78.14
2018-02-24T02:12:00.243Z,77.94
2018-02-24T02:12:49.302Z,78.61
2018-02-24T02:13:38.339Z,79.07
2018-02-24T02:14:27.381Z,79.32
2018-02-24T02:15:16.427Z,79.67
2018-02-24T02:16:05.490Z,79.42
2018-02-24T02:16:54.603Z,79.48
2018-02-24T02:17:44.690Z,79.28
2018-02-24T02:18:33.782Z,79.14
2018-02-24T02:19:22.962Z,78.95
2018-02-24T02:20:12.027Z,78.95
2018-02-24T02:21:01.090Z,79.14
2018-02-24T02:21:50.152Z,79.12
2018-02-24T02:22:39.208Z,79.09
2018-02-24T02:23:28.250Z,79.24
2018-02-24T02:24:17.322Z,79.13
2018-02-24T02:25:06.478Z,79.22
2018-02-24T02:25:55.511Z,79.07
2018-02-24T02:26:44.623Z,79.45
2018-02-24T02:27:33.686Z,79.40
2018-02-24T02:28:22.734Z,79.05
2018-02-24T02:29:11.772Z,79.32
2018-02-24T02:30:00.814Z,78.81
2018-02-24T02:30:49.900Z,78.60
2018-02-24T02:31:38.954Z,78.25
2018-02-24T02:32:29.070Z,78.54
2018-02-24T02:33:18.117Z,78.26
2018-02-24T02:34:07.157Z,77.95
2018-02-24T02:34:56.232Z,77.83
2018-02-24T02:35:45.296Z,77.97
2018-02-24T02:36:34.343Z,78.00
2018-02-24T02:37:23.392Z,77.68
2018-02-24T02:38:12.626Z,77.45
2018-02-24T02:39:01.679Z,77.36
2018-02-24T02:39:50.741Z,77.58
2018-02-24T02:40:39.771Z,77.76
2018-02-24T02:41:28.828Z,77.81
2018-02-24T02:42:17.889Z,77.72
2018-02-24T02:43:06.930Z,77.69
2018-02-24T02:43:56.003Z,78.22
2018-02-24T02:44:45.113Z,78.34
2018-02-24T02:45:34.195Z,78.50
2018-02-24T02:46:23.284Z,78.50
2018-02-24T02:47:12.333Z,78.59
2018-02-24T02:48:01.388Z,78.71
2018-02-24T02:48:50.432Z,78.78
2018-02-24T02:49:39.522Z,78.93
2018-02-24T02:50:28.560Z,79.16
2018-02-24T02:51:17.621Z,79.36
2018-02-24T02:52:06.662Z,79.44
2018-02-24T02:52:55.695Z,79.37
2018-02-24T02:53:44.758Z,79.60
2018-02-24T02:54:33.816Z,79.52
2018-02-24T02:55:22.998Z,78.34
2018-02-24T02:56:12.056Z,77.73
2018-02-24T02:57:01.111Z,77.48
2018-02-24T02:57:50.161Z,77.61
2018-02-24T02:58:39.219Z,78.15
2018-02-24T02:59:28.290Z,78.83
2018-02-24T03:00:17.345Z,78.72
2018-02-24T03:01:07.667Z,78.62
2018-02-24T03:01:56.709Z,78.45
2018-02-24T03:02:45.777Z,78.68
2018-02-24T03:03:34.835Z,79.00
2018-02-24T03:04:23.920Z,79.16
2018-02-24T03:05:13.033Z,79.14
2018-02-24T03:06:02.084Z,78.73
2018-02-24T03:06:51.161Z,78.33
2018-02-24T03:07:40.228Z,78.14
2018-02-24T03:08:29.279Z,76.89
2018-02-24T03:09:18.342Z,76.66
2018-02-24T03:10:07.401Z,76.73
2018-02-24T03:10:56.443Z,77.69
2018-02-24T03:11:45.492Z,78.00
2018-02-24T03:12:34.588Z,77.95
2018-02-24T03:13:23.639Z,78.08
2018-02-24T03:14:12.722Z,77.97
2018-02-24T03:15:01.773Z,77.91
2018-02-24T03:15:50.821Z,77.56
2018-02-24T03:16:40.145Z,76.98
2018-02-24T03:17:29.183Z,76.10
2018-02-24T03:18:18.248Z,75.93
2018-02-24T03:19:07.276Z,76.53
2018-02-24T03:19:56.330Z,75.90
2018-02-24T03:20:45.367Z,75.87
2018-02-24T03:21:34.417Z,75.91
2018-02-24T03:22:23.571Z,76.04
2018-02-24T03:23:12.624Z,76.11
2018-02-24T03:24:01.672Z,76.11
2018-02-24T03:24:50.732Z,76.04
2018-02-24T03:25:39.784Z,76.15
2018-02-24T03:26:28.836Z,76.29
2018-02-24T03:27:17.891Z,76.36
2018-02-24T03:28:07.049Z,77.02
2018-02-24T03:28:56.114Z,77.44
2018-02-24T03:29:45.179Z,77.53
2018-02-24T03:30:34.238Z,77.30
2018-02-24T03:31:23.294Z,76.34
2018-02-24T03:32:12.351Z,76.00
2018-02-24T03:33:01.430Z,75.90
2018-02-24T03:33:50.506Z,75.56
2018-02-24T03:34:39.538Z,75.40
2018-02-24T03:35:28.602Z,75.39
2018-02-24T03:36:17.659Z,75.61
2018-02-24T03:37:06.705Z,75.76
2018-02-24T03:37:55.757Z,75.66
2018-02-24T03:38:44.794Z,75.58
2018-02-24T03:39:34.080Z,75.81
2018-02-24T03:40:23.149Z,76.05
2018-02-24T03:41:13.141Z,75.76
2018-02-24T03:42:02.226Z,75.88
2018-02-24T03:42:51.283Z,76.07
2018-02-24T03:43:40.346Z,75.86
2018-02-24T03:44:29.404Z,76.33
2018-02-24T03:45:18.501Z,76.05
2018-02-24T03:46:09.496Z,76.13
2018-02-24T03:46:58.528Z,75.98
2018-02-24T03:47:47.595Z,75.90
2018-02-24T03:48:36.646Z,75.93
2018-02-24T03:49:25.728Z,75.90
2018-02-24T03:50:14.785Z,76.01
2018-02-24T03:51:04.066Z,75.97
2018-02-24T03:51:53.179Z,76.15
2018-02-24T03:52:42.242Z,75.87
2018-02-24T03:53:31.307Z,75.93
2018-02-24T03:54:20.376Z,76.25
2018-02-24T03:55:09.429Z,76.14
2018-02-24T03:55:58.503Z,76.17
2018-02-24T03:56:47.572Z,76.37
2018-02-24T03:57:36.914Z,76.34
2018-02-24T03:58:25.986Z,76.49
2018-02-24T03:59:15.155Z,76.73
2018-02-24T04:00:04.237Z,77.05
2018-02-24T04:00:53.292Z,77.76
2018-02-24T04:01:42.359Z,78.01
2018-02-24T04:02:31.411Z,78.34
2018-02-24T04:03:20.450Z,78.80
2018-02-24T04:04:09.491Z,79.24
2018-02-24T04:04:58.603Z,79.73
2018-02-24T04:05:47.674Z,79.90
2018-02-24T04:06:36.706Z,80.13
2018-02-24T04:07:25.817Z,80.37
2018-02-24T04:08:14.938Z,80.38
2018-02-24T04:09:04.035Z,80.47
2018-02-24T04:09:53.114Z,80.44
2018-02-24T04:10:42.150Z,80.52
2018-02-24T04:11:31.225Z,80.96
2018-02-24T04:12:20.285Z,81.51
2018-02-24T04:13:09.571Z,81.97
2018-02-24T04:13:58.632Z,82.24
2018-02-24T04:14:47.679Z,82.46
2018-02-24T04:15:36.851Z,82.72
2018-02-24T04:16:26.003Z,82.56
2018-02-24T04:17:15.009Z,82.49
2018-02-24T04:18:04.061Z,82.73
2018-02-24T04:18:56.274Z,82.81
2018-02-24T04:19:45.339Z,82.83
2018-02-24T04:20:34.397Z,82.96
2018-02-24T04:21:23.484Z,82.48
2018-02-24T04:22:12.599Z,82.18
2018-02-24T04:23:01.665Z,82.26
2018-02-24T04:23:50.716Z,81.99
2018-02-24T04:24:39.750Z,81.72
2018-02-24T04:25:28.782Z,81.95
2018-02-24T04:26:17.824Z,81.44
2018-02-24T04:27:06.876Z,81.40
2018-02-24T04:27:55.976Z,81.43
2018-02-24T04:28:45.028Z,81.88
2018-02-24T04:29:34.076Z,81.40
2018-02-24T04:30:23.174Z,81.31
2018-02-24T04:31:12.470Z,81.33
2018-02-24T04:32:01.513Z,81.42
2018-02-24T04:32:50.554Z,81.25
2018-02-24T04:33:39.613Z,81.01
2018-02-24T04:34:28.660Z,80.75
2018-02-24T04:35:17.707Z,81.19
2018-02-24T04:36:06.846Z,81.17
2018-02-24T04:36:55.883Z,80.93
2018-02-24T04:37:44.942Z,81.16
2018-02-24T04:38:34.018Z,80.75
2018-02-24T04:39:23.060Z,81.05
2018-02-24T04:40:12.105Z,81.19
2018-02-24T04:41:01.158Z,81.14
2018-02-24T04:41:50.269Z,81.28
2018-02-24T04:42:39.330Z,81.42
2018-02-24T04:43:28.386Z,81.26
2018-02-24T04:44:17.677Z,81.01
2018-02-24T04:52:03.120Z,80.92
2018-02-24T04:52:52.167Z,81.20
2018-02-24T04:53:41.210Z,81.26
2018-02-24T04:54:30.253Z,81.35
2018-02-24T04:55:19.308Z,81.68
2018-02-24T04:56:08.353Z,81.97
2018-02-24T04:56:57.394Z,82.22
2018-02-24T04:57:46.491Z,81.29
2018-02-24T04:58:35.539Z,81.08
2018-02-24T04:59:24.585Z,80.91
2018-02-24T05:00:13.623Z,79.76
2018-02-24T05:01:02.673Z,79.27
2018-02-24T05:01:51.719Z,79.09
2018-02-24T05:02:40.771Z,78.85
2018-02-24T05:03:29.838Z,78.98
2018-02-24T05:04:18.872Z,78.77
2018-02-24T05:05:07.921Z,78.72
2018-02-24T05:05:56.968Z,78.90
2018-02-24T05:06:46.033Z,79.17
2018-02-24T05:07:35.083Z,79.76
2018-02-24T05:08:24.122Z,80.24
2018-02-24T05:09:13.516Z,80.88
2018-02-24T05:10:02.605Z,81.16
2018-02-24T05:10:51.778Z,81.38
2018-02-24T05:11:40.833Z,81.38
2018-02-24T05:12:29.897Z,81.12
2018-02-24T05:13:18.943Z,80.70
2018-02-24T05:14:08.007Z,80.54
2018-02-24T05:14:57.075Z,80.28
2018-02-24T05:15:46.127Z,80.12
2018-02-24T05:16:35.230Z,79.80
2018-02-24T05:17:24.309Z,79.75
2018-02-24T05:18:13.358Z,80.33
2018-02-24T05:19:02.568Z,80.63
2018-02-24T05:19:51.636Z,80.57
2018-02-24T05:20:40.728Z,80.79
2018-02-24T05:21:29.779Z,80.69
2018-02-24T05:22:18.915Z,80.89
2018-02-24T05:23:07.979Z,81.21
2018-02-24T05:23:57.050Z,81.50
2018-02-24T05:24:46.126Z,81.19
2018-02-24T05:25:35.169Z,81.38
2018-02-24T05:26:24.230Z,81.62
2018-02-24T05:27:13.307Z,81.85
2018-02-24T05:28:02.479Z,82.29
2018-02-24T05:28:51.542Z,82.51
2018-02-24T05:29:40.623Z,82.62
2018-02-24T05:30:29.679Z,82.72
2018-02-24T05:31:18.757Z,82.68
2018-02-24T05:32:07.815Z,82.86
2018-02-24T05:32:56.868Z,82.76
2018-02-24T05:33:46.170Z,82.37
2018-02-24T05:34:35.239Z,81.92
2018-02-24T05:35:24.305Z,81.45
2018-02-24T05:36:13.355Z,81.13
2018-02-24T05:37:02.433Z,80.77
2018-02-24T05:37:51.489Z,80.48
2018-02-24T05:38:40.527Z,80.19
2018-02-24T05:39:29.647Z,79.88
2018-02-24T05:40:18.701Z,79.67
2018-02-24T05:41:07.754Z,79.22
2018-02-24T05:41:56.853Z,79.35
2018-02-24T05:42:45.910Z,79.15
2018-02-24T05:43:34.953Z,79.23
2018-02-24T05:44:24.020Z,78.71
2018-02-24T05:45:13.097Z,78.53
2018-02-24T05:46:02.170Z,78.83
2018-02-24T05:46:51.228Z,78.04
2018-02-24T05:47:40.373Z,77.65
2018-02-24T05:48:29.648Z,77.10
2018-02-24T05:49:18.698Z,76.74
2018-02-24T05:50:07.748Z,77.63
2018-02-24T05:50:56.796Z,77.79
2018-02-24T05:51:46.520Z,77.49
2018-02-24T05:52:35.581Z,77.90
2018-02-24T05:53:24.675Z,77.96
2018-02-24T05:54:13.726Z,77.98
2018-02-24T05:55:02.772Z,77.65
2018-02-24T05:55:51.814Z,77.69
2018-02-24T05:56:40.864Z,77.63
2018-02-24T05:57:29.921Z,77.71
2018-02-24T05:58:18.976Z,77.58
2018-02-24T05:59:08.240Z,77.40
2018-02-24T05:59:57.291Z,78.27
2018-02-24T06:00:46.526Z,77.69
2018-02-24T06:01:36.190Z,77.70
2018-02-24T06:02:26.064Z,77.65
2018-02-24T06:03:15.172Z,77.42
2018-02-24T06:04:04.566Z,76.80
2018-02-24T06:04:53.684Z,76.20
2018-02-24T06:05:42.769Z,76.21
2018-02-24T06:06:32.005Z,76.22
2018-02-24T06:07:21.101Z,76.59
2018-02-24T06:08:10.475Z,76.36
2018-02-24T06:08:59.535Z,76.12
2018-02-24T06:09:48.582Z,75.92
2018-02-24T06:10:37.664Z,76.07
2018-02-24T06:11:26.754Z,75.83
2018-02-24T06:12:15.831Z,75.18
2018-02-24T06:13:04.920Z,75.49
2018-02-24T06:13:54.279Z,76.27
2018-02-24T06:14:43.362Z,75.77
2018-02-24T06:15:32.414Z,75.24
2018-02-24T06:16:21.468Z,72.95
2018-02-24T06:17:10.528Z,74.69
2018-02-24T06:17:59.580Z,74.99
2018-02-24T06:18:48.621Z,73.66
2018-02-24T06:19:37.663Z,74.38
2018-02-24T06:20:26.931Z,73.89
2018-02-24T06:21:16.000Z,73.64
2018-02-24T06:22:05.093Z,73.94
2018-02-24T06:22:54.144Z,73.23
2018-02-24T06:23:43.182Z,73.43
2018-02-24T06:24:32.222Z,72.93
2018-02-24T06:25:21.363Z,72.69
2018-02-24T06:26:11.173Z,72.85
2018-02-24T06:27:00.416Z,72.78
2018-02-24T06:27:49.637Z,73.07
2018-02-24T06:28:38.706Z,72.63
2018-02-24T06:29:27.769Z,73.11
2018-02-24T06:30:16.836Z,73.49
2018-02-24T06:31:05.908Z,73.90
2018-02-24T06:31:54.980Z,74.31
2018-02-24T06:32:44.031Z,74.00
2018-02-24T06:33:33.134Z,74.18
2018-02-24T06:34:22.195Z,74.68
2018-02-24T06:35:11.262Z,74.70
2018-02-24T06:36:00.338Z,74.92
2018-02-24T06:36:49.499Z,74.24
2018-02-24T06:37:39.478Z,74.24
2018-02-24T06:38:28.556Z,73.75
2018-02-24T06:39:17.635Z,73.69
2018-02-24T06:40:06.712Z,73.42
2018-02-24T06:40:55.786Z,72.03
2018-02-24T06:41:44.848Z,72.28
2018-02-24T06:42:33.910Z,71.82
2018-02-24T06:43:23.061Z,72.25
2018-02-24T06:44:12.120Z,72.23
2018-02-24T06:45:01.208Z,72.07
2018-02-24T06:45:50.270Z,71.46
2018-02-24T06:46:39.538Z,71.21
2018-02-24T06:47:30.993Z,70.28
2018-02-24T06:48:20.090Z,69.89
2018-02-24T06:49:09.404Z,69.70
2018-02-24T06:49:58.515Z,69.55
2018-02-24T06:50:47.661Z,69.22
2018-02-24T06:51:36.761Z,69.40
2018-02-24T06:52:25.835Z,68.78
2018-02-24T06:53:14.921Z,68.57
2018-02-24T06:54:04.214Z,68.80
2018-02-24T06:54:53.295Z,69.37
2018-02-24T06:55:42.385Z,69.10
2018-02-24T06:56:31.469Z,68.99
2018-02-24T06:57:20.553Z,69.35
2018-02-24T06:58:09.612Z,69.86
2018-02-24T06:58:58.663Z,69.80
2018-02-24T06:59:47.725Z,68.94
2018-02-24T07:00:36.801Z,69.32
2018-02-24T07:01:25.946Z,68.49
2018-02-24T07:02:15.014Z,66.40
2018-02-24T07:03:04.080Z,66.12
2018-02-24T07:03:53.163Z,66.20
2018-02-24T07:04:42.537Z,66.36
2018-02-24T07:05:31.695Z,64.43
2018-02-24T07:06:20.797Z,63.67
2018-02-24T07:07:09.890Z,63.43
2018-02-24T07:07:58.950Z,63.56
2018-02-24T07:08:48.005Z,64.11
2018-02-24T07:09:37.057Z,63.76
2018-02-24T07:10:26.100Z,62.98
2018-02-24T07:11:15.222Z,62.96
2018-02-24T07:12:04.382Z,62.72
2018-02-24T07:15:42.020Z,63.74
2018-02-24T07:16:31.075Z,63.21
2018-02-24T07:17:20.198Z,63.86
2018-02-24T07:18:09.585Z,64.19
2018-02-24T07:18:58.654Z,65.67
2018-02-24T07:19:47.694Z,65.85
2018-02-24T07:20:36.757Z,65.04
2018-02-24T07:21:25.789Z,65.65
2018-02-24T07:22:14.830Z,64.78
2018-02-24T07:23:04.103Z,64.51
2018-02-24T07:23:53.167Z,64.18
2018-02-24T07:24:42.230Z,63.80
2018-02-24T07:25:31.297Z,64.47
2018-02-24T07:26:20.363Z,63.41
2018-02-24T07:27:09.402Z,62.12
2018-02-24T07:27:58.479Z,61.49
2018-02-24T07:28:47.635Z,60.98
2018-02-24T07:29:36.706Z,61.16
2018-02-24T07:30:25.756Z,61.31
2018-02-24T07:31:14.822Z,60.73
2018-02-24T07:32:06.843Z,60.40
2018-02-24T07:32:56.424Z,59.77
2018-02-24T07:33:48.815Z,59.80
2018-02-24T07:34:39.987Z,60.10
2018-02-24T07:35:29.463Z,60.01
2018-02-24T07:36:18.524Z,61.14
2018-02-24T07:37:07.571Z,60.80
2018-02-24T07:37:56.648Z,60.96
2018-02-24T07:38:45.751Z,60.46
2018-02-24T07:39:35.887Z,60.05
2018-02-24T07:40:26.425Z,59.99
2018-02-24T07:41:19.290Z,59.33
2018-02-24T07:42:12.824Z,59.46
2018-02-24T07:43:05.155Z,59.67
2018-02-24T07:43:57.657Z,59.44
2018-02-24T07:44:51.024Z,60.05
2018-02-24T07:45:40.311Z,58.87
2018-02-24T07:46:29.475Z,59.51
2018-02-24T07:47:18.620Z,59.88
2018-02-24T07:48:07.711Z,59.47
2018-02-24T07:48:57.060Z,59.07
2018-02-24T07:49:46.154Z,59.38
2018-02-24T07:50:35.292Z,58.71
2018-02-24T07:51:24.424Z,58.83
2018-02-24T07:52:13.574Z,57.85
2018-02-24T07:53:02.652Z,57.94
2018-02-24T07:53:51.724Z,58.83
2018-02-24T07:54:40.804Z,59.78
2018-02-24T07:55:29.905Z,59.96
2018-02-24T07:56:19.129Z,58.38
2018-02-24T07:57:08.238Z,58.83
2018-02-24T07:57:57.363Z,58.69
2018-02-24T07:58:46.461Z,58.12
2018-02-24T07:59:35.570Z,58.55
2018-02-24T08:00:24.685Z,58.48
2018-02-24T08:01:13.765Z,59.30
2018-02-24T08:02:03.262Z,59.23
2018-02-24T08:02:52.409Z,59.04
2018-02-24T08:03:41.542Z,59.50
2018-02-24T08:04:30.661Z,59.59
2018-02-24T08:05:19.782Z,60.69
2018-02-24T08:06:08.864Z,61.77
2018-02-24T08:06:57.987Z,60.83
2018-02-24T08:07:47.261Z,60.29
2018-02-24T08:08:36.388Z,60.15
2018-02-24T08:09:25.490Z,59.72
2018-02-24T08:10:14.569Z,59.67
2018-02-24T08:11:03.683Z,59.97
2018-02-24T08:11:52.745Z,59.87
2018-02-24T08:12:41.849Z,60.02
2018-02-24T08:13:30.987Z,60.44
2018-02-24T08:14:20.106Z,59.01
2018-02-24T08:15:09.201Z,58.02
2018-02-24T08:15:58.351Z,58.28
2018-02-24T08:16:47.489Z,59.12
2018-02-24T08:17:36.592Z,57.73
2018-02-24T08:18:25.770Z,57.59
2018-02-24T08:19:14.859Z,59.28
2018-02-24T08:20:03.942Z,57.74
2018-02-24T08:20:53.035Z,57.37
2018-02-24T08:21:42.144Z,58.50
2018-02-24T08:22:31.238Z,59.13
2018-02-24T08:23:20.340Z,57.68
2018-02-24T08:24:09.805Z,57.90
2018-02-24T08:24:59.076Z,58.36
2018-02-24T08:25:48.364Z,57.82
2018-02-24T08:26:37.575Z,59.00
2018-02-24T08:27:26.690Z,57.53
2018-02-24T08:28:15.820Z,56.32
2018-02-24T08:29:04.902Z,55.64
2018-02-24T08:29:54.040Z,55.34
2018-02-24T08:30:43.124Z,55.64
2018-02-24T08:31:32.225Z,56.82
2018-02-24T08:32:21.357Z,55.68
2018-02-24T08:33:10.433Z,56.72
2018-02-24T08:33:59.578Z,56.45
2018-02-24T08:34:48.672Z,55.99
2018-02-24T08:35:37.763Z,56.12
2018-02-24T08:36:26.870Z,56.92
2018-02-24T08:37:15.932Z,57.15
2018-02-24T08:38:05.050Z,57.48
2018-02-24T08:38:54.165Z,57.37
2018-02-24T08:39:43.263Z,57.16
2018-02-24T08:40:32.351Z,58.24
2018-02-24T08:41:23.266Z,57.75
2018-02-24T08:42:12.441Z,58.28
2018-02-24T08:43:01.541Z,57.50
2018-02-24T08:43:51.554Z,58.19
2018-02-24T08:44:40.684Z,56.89
2018-02-24T08:45:29.784Z,58.21
2018-02-24T08:46:18.882Z,57.61
2018-02-24T08:47:08.085Z,57.47
2018-02-24T08:47:58.898Z,58.70
2018-02-24T08:48:48.009Z,57.73
2018-02-24T08:49:37.084Z,58.26
2018-02-24T08:50:26.150Z,57.87
2018-02-24T08:51:15.265Z,58.03
2018-02-24T08:52:04.328Z,56.60
2018-02-24T08:52:53.471Z,57.48
2018-02-24T08:53:42.575Z,57.84
2018-02-24T08:54:31.657Z,56.96
2018-02-24T08:55:20.778Z,57.16
2018-02-24T08:56:09.853Z,57.81
2018-02-24T08:56:58.999Z,57.94
2018-02-24T08:57:48.133Z,57.71
2018-02-24T08:58:37.272Z,56.71
2018-02-24T08:59:26.501Z,56.26
2018-02-24T09:00:15.484Z,56.79
2018-02-24T09:01:04.554Z,57.64
2018-02-24T09:01:53.681Z,57.48
2018-02-24T09:02:42.757Z,56.31
2018-02-24T09:03:31.992Z,56.63
2018-02-24T09:04:21.402Z,56.38
2018-02-24T09:05:10.552Z,56.66
2018-02-24T09:05:59.647Z,56.99
2018-02-24T09:06:48.716Z,57.59
2018-02-24T09:07:37.829Z,57.50
2018-02-24T09:08:26.989Z,56.85
2018-02-24T09:09:16.044Z,57.11
2018-02-24T09:10:06.159Z,56.50
2018-02-24T09:10:55.328Z,55.95
2018-02-24T09:11:44.512Z,55.90
2018-02-24T09:12:33.568Z,56.02
2018-02-24T09:13:22.666Z,56.23
2018-02-24T09:14:11.734Z,55.97
2018-02-24T09:15:00.888Z,54.99
2018-02-24T09:15:50.199Z,56.88
2018-02-24T09:16:39.254Z,56.33
2018-02-24T09:17:28.379Z,56.07
2018-02-24T09:18:17.464Z,57.17
2018-02-24T09:19:06.685Z,58.06
2018-02-24T09:19:58.886Z,59.25
2018-02-24T09:20:48.030Z,57.46
2018-02-24T09:21:37.122Z,57.01
2018-02-24T09:22:26.204Z,54.69
2018-02-24T09:23:15.534Z,55.00
2018-02-24T09:24:04.893Z,55.05
2018-02-24T09:24:54.057Z,54.92
2018-02-24T09:25:43.214Z,55.74
2018-02-24T09:26:32.395Z,57.41
2018-02-24T09:27:21.863Z,55.47
2018-02-24T09:28:10.960Z,55.23
2018-02-24T09:29:00.061Z,54.47
2018-02-24T09:29:49.125Z,54.16
2018-02-24T09:30:38.190Z,55.57
2018-02-24T09:31:27.278Z,54.83
2018-02-24T09:32:16.503Z,55.91
2018-02-24T09:33:05.701Z,55.79
2018-02-24T09:33:54.850Z,55.61
2018-02-24T09:34:43.962Z,56.86
2018-02-24T09:35:33.054Z,56.39
2018-02-24T09:36:22.120Z,56.60
2018-02-24T09:37:11.225Z,57.08
2018-02-24T09:38:00.335Z,57.35
2018-02-24T09:38:49.570Z,56.53
2018-02-24T09:39:38.656Z,58.03
2018-02-24T09:40:27.760Z,58.02
2018-02-24T09:41:16.896Z,58.13
2018-02-24T09:42:06.029Z,55.98
2018-02-24T09:42:55.110Z,57.25
2018-02-24T09:43:44.190Z,58.06
2018-02-24T09:44:33.502Z,56.64
2018-02-24T09:45:22.625Z,56.30
2018-02-24T09:46:11.718Z,55.59
2018-02-24T09:47:00.867Z,56.46
2018-02-24T09:47:49.949Z,57.58
2018-02-24T09:48:39.034Z,57.13
2018-02-24T09:49:28.122Z,57.37
2018-02-24T09:50:17.225Z,57.60
2018-02-24T09:51:06.402Z,58.50
2018-02-24T09:51:55.492Z,59.02
2018-02-24T09:52:44.790Z,58.70
2018-02-24T09:53:33.943Z,58.86
2018-02-24T09:54:23.079Z,59.34
2018-02-24T09:55:20.251Z,59.91
2018-02-24T09:56:12.806Z,59.83
2018-02-24T09:57:02.089Z,58.29
2018-02-24T09:57:51.141Z,57.67
2018-02-24T09:58:40.257Z,58.53
2018-02-24T09:59:29.353Z,57.40
2018-02-24T10:00:20.956Z,57.91
2018-02-24T10:01:13.924Z,58.57
2018-02-24T10:02:03.315Z,58.33
2018-02-24T10:02:52.365Z,58.03
2018-02-24T10:03:41.503Z,58.47
2018-02-24T10:04:30.610Z,57.24
2018-02-24T10:05:19.718Z,57.42
2018-02-24T10:06:08.791Z,58.19
2018-02-24T10:06:57.903Z,57.99
2018-02-24T10:07:47.029Z,57.27
2018-02-24T10:08:36.252Z,57.89
2018-02-24T10:09:25.325Z,57.99
2018-02-24T10:10:14.441Z,58.68
2018-02-24T10:11:03.598Z,58.50
2018-02-24T10:11:52.687Z,58.26
2018-02-24T10:12:41.878Z,58.30
2018-02-24T10:13:30.963Z,57.28
2018-02-24T10:14:20.407Z,57.41
2018-02-24T10:15:11.272Z,57.26
2018-02-24T10:16:00.354Z,57.58
2018-02-24T10:16:49.452Z,58.82
2018-02-24T10:17:38.524Z,59.29
2018-02-24T10:18:27.973Z,59.40
2018-02-24T10:19:17.325Z,58.39
2018-02-24T10:20:06.420Z,58.86
2018-02-24T10:20:55.610Z,57.90
2018-02-24T10:21:44.710Z,57.07
2018-02-24T10:22:33.864Z,57.71
2018-02-24T10:23:22.963Z,59.30
2018-02-24T10:24:12.023Z,58.12
2018-02-24T10:25:01.230Z,57.79
2018-02-24T10:25:50.262Z,58.47
2018-02-24T10:26:39.362Z,56.73
2018-02-24T10:27:28.524Z,57.50
2018-02-24T10:28:17.811Z,57.02
2018-02-24T10:29:06.963Z,56.51
2018-02-24T10:29:56.105Z,56.73
2018-02-24T10:30:45.199Z,56.19
2018-02-24T10:31:34.284Z,57.34
2018-02-24T10:32:23.408Z,57.24
2018-02-24T10:33:12.489Z,57.61
2018-02-24T10:34:01.632Z,57.66
2018-02-24T10:34:50.909Z,56.84
2018-02-24T10:35:40.088Z,57.07
2018-02-24T10:36:29.178Z,56.87
2018-02-24T10:37:18.258Z,56.24
2018-02-24T10:38:07.329Z,57.69
2018-02-24T10:38:56.384Z,57.49
2018-02-24T10:39:45.468Z,57.64
2018-02-24T10:40:34.562Z,57.24
2018-02-24T10:41:23.671Z,57.39
2018-02-24T10:42:12.742Z,55.80
2018-02-24T10:43:01.810Z,55.58